Flight Track Log - Related Links

Times and Time Zones

All times are in EDT time to prevent confusion due to time zone crossing. See the ENY3701 flight status page for this flight to view local times or setup timezone preferences in your user account.

Time Position Orientation Groundspeed Altitude Reporting Facility
EDT Latitude Longitude Course Direction KTS MPH feet Rate Location/Type
Thu 07:16:09 PM 41.4636 -93.7200 197° South 215 247 5,000  Level Minneapolis Center
Thu 07:17:11 PM 41.4744 -93.6394 80° East 238 274 7,700 2,323 Climbing Minneapolis Center
Thu 07:18:13 PM 41.5194 -93.5806 44° Northeast 245 282 9,800 2,226 Climbing Minneapolis Center
Thu 07:19:15 PM 41.5686 -93.5092 47° Northeast 256 295 12,300 2,177 Climbing Minneapolis Center
Thu 07:20:00 PM 41.5349 -93.6615 50° Northeast  Level FlightAware Approximate
Thu 07:20:17 PM 41.6200 -93.4336 48° Northeast 269 310 14,300  Level Minneapolis Center
Thu 07:21:19 PM 41.6886 -93.3325 48° Northeast 302 348 16,200 1,887 Climbing Minneapolis Center
Thu 07:22:21 PM 41.7481 -93.2422 49° Northeast 318 366 18,200 1,935 Climbing Minneapolis Center
Thu 07:23:23 PM 41.8092 -93.1497 48° Northeast 328 377 20,200 1,935 Climbing Minneapolis Center
Thu 07:24:25 PM 41.8725 -93.0556 48° Northeast 336 387 22,200 1,920 Climbing Minneapolis Center
Thu 07:25:28 PM 41.9347 -92.9600 49° Northeast 338 389 24,200 1,440 Climbing Minneapolis Center
Thu 07:26:30 PM 42.0081 -92.8503 48° Northeast 353 406 25,200 1,147 Climbing Minneapolis Center
Thu 07:27:44 PM 42.0919 -92.7214 49° Northeast 374 430 26,800 794 Climbing Chicago Center
Thu 07:28:46 PM 42.1772 -92.5917 48° Northeast 387 445 27,000 97 Climbing Chicago Center
Thu 07:29:48 PM 42.2483 -92.4828 49° Northeast 391 450 27,000  Level Chicago Center
Thu 07:30:50 PM 42.3192 -92.3750 48° Northeast 390 449 27,000  Level Chicago Center
Thu 07:31:53 PM 42.3786 -92.2583 55° Northeast 389 448 27,000  Level Chicago Center
Thu 07:32:55 PM 42.3917 -92.1031 83° East 416 479 27,000  Level Chicago Center
Thu 07:33:57 PM 42.4033 -91.9050 85° East 445 512 27,000  Level Chicago Center
Thu 07:34:59 PM 42.4331 -91.7458 76° East 452 520 27,000  Level Chicago Center
Thu 07:36:01 PM 42.4806 -91.5978 66° East 440 506 27,000  Level Chicago Center
Thu 07:37:03 PM 42.5269 -91.4500 67° East 439 505 27,000 -145 Level Chicago Center
Thu 07:38:05 PM 42.5303 -91.2533 89° East 445 512 26,700 -581 Descending Chicago Center
Thu 07:39:07 PM 42.5289 -91.0889 91° East 445 512 25,800 -919 Descending Chicago Center
Thu 07:40:09 PM 42.5275 -90.9289 91° East 437 503 24,800 -864 Descending Chicago Center
Thu 07:41:12 PM 42.5272 -90.7683 90° East 434 499 24,000 -384 Descending Chicago Center
Thu 07:42:14 PM 42.5261 -90.5767 90° East 430 495 24,000  Level Chicago Center
Thu 07:43:16 PM 42.5242 -90.4086 91° East 447 514 24,000  Level Chicago Center
Thu 07:44:18 PM 42.5233 -90.2400 90° East 451 519 24,000  Level Chicago Center
Thu 07:45:20 PM 42.5217 -90.0694 91° East 456 525 24,000 -48 Level Chicago Center
Thu 07:46:22 PM 42.5189 -89.8836 91° East 455 524 23,900 -1,161 Descending Chicago Center
Thu 07:47:24 PM 42.5158 -89.7172 91° East 447 514 21,600 -2,032 Descending Chicago Center
Thu 07:48:26 PM 42.5144 -89.5547 91° East 439 505 19,700 -1,872 Descending Chicago Center
Thu 07:49:29 PM 42.5106 -89.3703 92° East 412 474 17,700 -1,680 Descending Chicago Center
Thu 07:50:31 PM 42.5089 -89.2183 91° East 408 470 16,200 -1,500 Descending Chicago Center
Thu 07:51:33 PM 42.5067 -89.0706 91° East 395 455 14,600 -1,452 Descending Chicago Center
Thu 07:52:35 PM 42.5050 -88.9281 91° East 389 448 13,200 -1,403 Descending Chicago Center
Thu 07:53:37 PM 42.4653 -88.7975 112° Southeast 376 433 11,700 -1,065 Descending Chicago Center
Thu 07:54:39 PM 42.4175 -88.6433 113° Southeast 376 433 11,000 -339 Descending Chicago Center
Thu 07:55:41 PM 42.3783 -88.5136 112° Southeast 375 432 11,000  Level Chicago Center
Thu 07:56:44 PM 42.3394 -88.3869 113° Southeast 374 430 11,000  Level Chicago Center
Thu 07:57:46 PM 42.2642 -88.2611 129° Southeast 376 433 11,000 -48 Level Chicago Center
Thu 07:58:48 PM 42.1992 -88.1536 129° Southeast 373 429 10,900 -581 Descending Chicago Center
Thu 07:59:50 PM 42.1272 -88.0681 139° Southeast 314 361 9,800 -1,016 Descending Chicago Center
Thu 08:00:52 PM 42.0903 -87.9761 118° Southeast 299 344 8,800 -968 Descending Chicago Center
Thu 08:01:54 PM 42.0906 -87.8661 90° East 298 343 7,800 -1,016 Descending Chicago Center
Thu 08:02:56 PM 42.0906 -87.7511 90° East 287 330 6,700 -871 Descending Chicago Center
Thu 08:03:58 PM 42.0917 -87.6464 89° East 283 326 6,000 -768 Descending Chicago Center
Thu 08:05:01 PM 42.0906 -87.5358 91° East 277 319 5,100 -528 Descending Chicago Center
Thu 08:06:03 PM 42.0875 -87.4467 93° East 245 282 4,900 -484 Descending Chicago Center
Thu 08:07:05 PM 42.0236 -87.4233 165° South 231 266 4,100 -435 Descending Chicago Center
Thu 08:08:07 PM 42.0017 -87.4903 246° West 196 226 4,000 -48 Descending Chicago Center
Thu 08:09:09 PM 42.0022 -87.5628 271° West 183 211 4,000  Level Chicago Center
Thu 08:10:11 PM 42.0022 -87.6303 270° West 182 209 4,000 -242 Level Chicago Center
Thu 08:11:13 PM 42.0025 -87.7039 270° West 183 211 3,500 -726 Descending Chicago Center
Thu 08:12:15 PM 42.0033 -87.7703 271° West 182 209 2,500 -912 Descending Chicago Center
Thu 08:13:18 PM 42.0028 -87.8353 269° West 162 186 1,600 -720 Descending Chicago Center
Thu 08:14:20 PM 42.0025 -87.8825 270° West 134 154 1,000 -581 Descending Chicago Center

Login

Don't have an account? Register now (free) for customized features, flight alerts, and more!